createdAt,value
2022-10-11T00:04:23.739Z,14.4
2022-10-11T00:09:23.833Z,14.3
2022-10-11T00:14:23.812Z,13.8
2022-10-11T00:19:29.250Z,13.2
2022-10-11T00:24:24.180Z,13.2
2022-10-11T00:29:24.209Z,13.2
2022-10-11T00:34:24.119Z,13.2
2022-10-11T00:39:23.994Z,13.2
2022-10-11T00:44:23.886Z,13.6
2022-10-11T00:49:23.828Z,14.6
2022-10-11T00:54:23.758Z,15
2022-10-11T00:59:23.817Z,15
2022-10-11T01:04:23.893Z,15.2
2022-10-11T01:09:23.793Z,15.7
2022-10-11T01:14:23.776Z,15.7
2022-10-11T01:19:23.761Z,15
2022-10-11T01:24:23.798Z,15
2022-10-11T01:29:23.837Z,14.9
2022-10-11T01:34:23.823Z,14.9
2022-10-11T01:39:23.867Z,14.3
2022-10-11T01:44:23.817Z,14.3
2022-10-11T01:49:23.804Z,14.2
2022-10-11T01:54:23.891Z,13.8
2022-10-11T01:59:23.787Z,13.8
2022-10-11T02:04:23.793Z,14.2
2022-10-11T02:09:23.803Z,14.2
2022-10-11T02:14:23.771Z,14.5
2022-10-11T02:19:23.776Z,14.5
2022-10-11T02:24:23.774Z,14.5
2022-10-11T02:29:23.862Z,16.3
2022-10-11T02:34:23.789Z,16.5
2022-10-11T02:39:23.777Z,17.7
2022-10-11T02:44:23.790Z,18.1
2022-10-11T02:49:23.807Z,19.2
2022-10-11T02:54:23.773Z,19.2
2022-10-11T02:59:23.791Z,19.2
2022-10-11T03:04:23.826Z,19
2022-10-11T03:09:23.839Z,19
2022-10-11T03:14:23.809Z,19
2022-10-11T03:19:23.842Z,19
2022-10-11T03:24:23.852Z,19
2022-10-11T03:29:23.790Z,19.2
2022-10-11T03:34:23.821Z,19.5
2022-10-11T03:39:23.796Z,19.5
2022-10-11T03:44:23.847Z,19.5
2022-10-11T03:49:23.961Z,19.5
2022-10-11T03:54:23.872Z,19.5
2022-10-11T03:59:23.870Z,19.1
2022-10-11T04:04:23.880Z,19.1
2022-10-11T04:09:23.885Z,18.8
2022-10-11T04:14:23.859Z,18.6
2022-10-11T04:19:23.899Z,18.4
2022-10-11T04:24:23.835Z,18.4
2022-10-11T04:29:24.596Z,18.8
2022-10-11T04:34:23.898Z,19
2022-10-11T04:39:23.823Z,19
2022-10-11T04:44:23.917Z,28.8
2022-10-11T04:49:23.906Z,28.8
2022-10-11T04:54:23.935Z,28.8
2022-10-11T04:59:23.848Z,28.8
2022-10-11T05:04:23.929Z,19.2
2022-10-11T05:09:23.858Z,19.1
2022-10-11T05:14:23.935Z,19.1
2022-10-11T05:19:23.885Z,19.1
2022-10-11T05:24:23.855Z,19.2
2022-10-11T05:29:23.893Z,19.8
2022-10-11T05:34:23.890Z,19.8
2022-10-11T05:39:23.828Z,20.7
2022-10-11T05:44:23.913Z,20.9
2022-10-11T05:49:23.847Z,20.9
2022-10-11T05:54:23.906Z,20.7
2022-10-11T05:59:23.869Z,20.9
2022-10-11T06:04:23.820Z,20.9
2022-10-11T06:09:23.916Z,21.9
2022-10-11T06:14:23.947Z,22
2022-10-11T06:19:23.871Z,23.6
2022-10-11T06:24:23.970Z,24.1
2022-10-11T06:29:23.871Z,24.9
2022-10-11T06:34:23.899Z,24.9
2022-10-11T06:39:23.870Z,24.3
2022-10-11T06:44:23.842Z,25
2022-10-11T06:49:25.566Z,24.3
2022-10-11T06:54:23.830Z,25
2022-10-11T06:59:23.832Z,25.4
2022-10-11T07:04:23.852Z,25.4
2022-10-11T07:09:23.862Z,27.9
2022-10-11T07:14:23.864Z,28
2022-10-11T07:19:23.967Z,28.5
2022-10-11T07:24:23.915Z,29.2
2022-10-11T07:29:23.879Z,29.7
2022-10-11T07:34:23.871Z,29.9
2022-10-11T07:39:23.837Z,31.5
2022-10-11T07:44:23.881Z,31.6
2022-10-11T07:49:23.848Z,31.9
2022-10-11T07:54:23.934Z,32.1
2022-10-11T07:59:23.855Z,32.1
2022-10-11T08:04:23.929Z,31.6
2022-10-11T08:09:23.907Z,31.5
2022-10-11T08:14:23.927Z,28.6
2022-10-11T08:19:23.875Z,27.5
2022-10-11T08:24:24.795Z,24.9
2022-10-11T08:29:24.006Z,24.9
2022-10-11T08:34:23.898Z,22.8
2022-10-11T08:39:23.991Z,21.8
2022-10-11T08:44:23.942Z,20.7
2022-10-11T08:49:24.865Z,20.5
2022-10-11T08:54:23.880Z,18
2022-10-11T08:59:23.958Z,15.7
2022-10-11T09:04:23.893Z,15.1
2022-10-11T09:09:23.874Z,15.1
2022-10-11T09:14:23.929Z,14.8
2022-10-11T09:19:23.972Z,14
2022-10-11T09:24:23.897Z,12.7
2022-10-11T09:29:23.938Z,12.7
2022-10-11T09:34:23.917Z,12.1
2022-10-11T09:39:23.945Z,11.4
2022-10-11T09:44:23.936Z,11
2022-10-11T09:49:23.925Z,11
2022-10-11T09:54:24.036Z,10.8
2022-10-11T09:59:23.952Z,10.8
2022-10-11T10:04:24.085Z,10.8
2022-10-11T10:09:25.935Z,10.7
2022-10-11T10:14:24.052Z,10.5
2022-10-11T10:19:23.908Z,10.5
2022-10-11T10:24:23.868Z,10.5
2022-10-11T10:29:23.927Z,10.8
2022-10-11T10:34:23.928Z,11.1
2022-10-11T10:39:23.943Z,11.1
2022-10-11T10:44:23.947Z,11.2
2022-10-11T10:49:53.480Z,11.2
2022-10-11T10:54:23.929Z,11.1
2022-10-11T10:59:23.914Z,11.1
2022-10-11T11:04:23.928Z,10.7
2022-10-11T11:09:23.932Z,9
2022-10-11T11:14:27.677Z,8.8
2022-10-11T11:19:23.974Z,8.2
2022-10-11T11:24:23.913Z,8.2
2022-10-11T11:29:23.944Z,8.2
2022-10-11T11:34:23.895Z,8.2
2022-10-11T11:39:23.914Z,7.7
2022-10-11T11:44:28.361Z,7.6
2022-10-11T11:49:24.448Z,7.6
2022-10-11T11:54:23.977Z,7.5
2022-10-11T11:59:24.105Z,7.5
2022-10-11T12:04:34.704Z,7.3
2022-10-11T12:09:24.020Z,7
2022-10-11T12:14:23.955Z,7
2022-10-11T12:19:23.990Z,7
2022-10-11T12:24:24.066Z,6.4
2022-10-11T12:29:30.375Z,6.1
2022-10-11T12:34:23.885Z,5.8
2022-10-11T12:39:24.031Z,5.8
2022-10-11T12:44:23.917Z,5.8
2022-10-11T12:49:24.335Z,5.7
2022-10-11T12:54:34.571Z,5.7
2022-10-11T12:59:23.941Z,5.7
2022-10-11T13:14:23.936Z,6
2022-10-11T13:19:23.976Z,5.65
2022-10-11T13:24:23.916Z,5.6
2022-10-11T13:29:25.308Z,5.6
2022-10-11T13:34:24.953Z,5.6
2022-10-11T13:39:30.098Z,5.45
2022-10-11T13:44:24.049Z,5.3
2022-10-11T13:49:23.908Z,5.2
2022-10-11T13:54:23.982Z,5.2
2022-10-11T13:59:23.949Z,5.2
2022-10-11T14:04:50.490Z,5.2
2022-10-11T14:09:23.999Z,5.2
2022-10-11T14:14:24.021Z,5.2
2022-10-11T14:19:28.926Z,5.2
2022-10-11T14:29:29.402Z,5.3
2022-10-11T14:34:24.154Z,5.5
2022-10-11T14:39:30.567Z,5.5
2022-10-11T14:44:24.015Z,5.5
2022-10-11T14:49:24.015Z,5.5
2022-10-11T14:54:23.971Z,5.6
2022-10-11T14:59:23.956Z,5.7
2022-10-11T15:04:24.009Z,5.7
2022-10-11T15:09:23.967Z,5.7
2022-10-11T15:14:24.005Z,5.7
2022-10-11T15:19:23.978Z,5.9
2022-10-11T15:24:24.023Z,5.9
2022-10-11T15:29:23.956Z,6.3
2022-10-11T15:34:24.008Z,6.9
2022-10-11T15:39:23.998Z,7.2
2022-10-11T15:44:23.952Z,7.4
2022-10-11T15:49:24.004Z,7.4
2022-10-11T15:54:23.996Z,7.9
2022-10-11T15:59:23.982Z,8.4
2022-10-11T16:04:24.020Z,7.9
2022-10-11T16:09:23.939Z,7.9
2022-10-11T16:14:24.088Z,7.9
2022-10-11T16:19:24.119Z,7.6
2022-10-11T16:24:24.021Z,7.6
2022-10-11T16:29:24.097Z,7.6
2022-10-11T16:34:24.082Z,7.6
2022-10-11T16:39:24.046Z,7.8
2022-10-11T16:44:24.065Z,8.5
2022-10-11T16:49:24.118Z,10.4
2022-10-11T16:54:24.131Z,10.4
2022-10-11T16:59:24.225Z,10.4
2022-10-11T17:04:24.099Z,11.9
2022-10-11T17:09:24.075Z,10.4
2022-10-11T17:14:23.964Z,10.4
2022-10-11T17:19:24.089Z,10.4
2022-10-11T17:24:24.126Z,11.9
2022-10-11T17:29:24.032Z,11.9
2022-10-11T17:34:24.113Z,13.1
2022-10-11T17:39:24.099Z,13.1
2022-10-11T17:44:24.120Z,13.1
2022-10-11T17:49:24.153Z,13.1
2022-10-11T17:54:24.215Z,12.1
2022-10-11T17:59:24.104Z,10.8
2022-10-11T18:04:24.326Z,10.8
2022-10-11T18:09:24.155Z,10.6
2022-10-11T18:14:24.244Z,10
2022-10-11T18:19:24.113Z,10
2022-10-11T18:24:24.205Z,10.3
2022-10-11T18:29:24.193Z,10.3
2022-10-11T18:34:24.202Z,10.3
2022-10-11T18:39:24.117Z,10.3
2022-10-11T18:44:24.202Z,10.6
2022-10-11T18:49:24.211Z,12
2022-10-11T18:54:24.180Z,12
2022-10-11T18:59:24.054Z,10.6
2022-10-11T19:04:24.115Z,10.6
2022-10-11T19:09:24.243Z,9.4
2022-10-11T19:14:24.152Z,9.2
2022-10-11T19:19:24.113Z,9
2022-10-11T19:24:24.212Z,8.8
2022-10-11T19:29:24.207Z,8.5
2022-10-11T19:34:24.068Z,8.5
2022-10-11T19:39:24.205Z,8.2
2022-10-11T19:44:24.078Z,8.2
2022-10-11T19:49:24.118Z,7.8
2022-10-11T19:54:24.237Z,7.7
2022-10-11T19:59:24.238Z,7.7
2022-10-11T20:04:51.417Z,7.8
2022-10-11T20:09:30.929Z,8.4
2022-10-11T20:14:24.155Z,8.5
2022-10-11T20:19:30.814Z,8.5
2022-10-11T20:24:24.098Z,22.9
2022-10-11T20:29:24.101Z,24.7
2022-10-11T20:34:24.121Z,40.9
2022-10-11T20:39:24.038Z,40.9
2022-10-11T20:44:24.234Z,40.9
2022-10-11T20:49:24.085Z,24.7
2022-10-11T20:54:24.196Z,10.1
2022-10-11T20:59:24.112Z,9.6
2022-10-11T21:04:24.121Z,9.6
2022-10-11T21:09:24.183Z,9.3
2022-10-11T21:14:24.189Z,9.3
2022-10-11T21:19:24.190Z,9.3
2022-10-11T21:24:24.233Z,10.1
2022-10-11T21:29:24.080Z,10.1
2022-10-11T21:34:24.032Z,10.5
2022-10-11T21:39:24.018Z,11.5
2022-10-11T21:44:24.014Z,11.5
2022-10-11T21:49:24.028Z,11.5
2022-10-11T21:54:24.016Z,11.5
2022-10-11T21:59:24.090Z,11.3
2022-10-11T22:04:24.017Z,11.1
2022-10-11T22:09:24.034Z,10.9
2022-10-11T22:14:24.094Z,10.9
2022-10-11T22:19:29.587Z,10.9
2022-10-11T22:24:24.031Z,10.9
2022-10-11T22:29:24.047Z,11.9
2022-10-11T22:34:24.079Z,12.9
2022-10-11T22:39:24.005Z,13
2022-10-11T22:44:24.012Z,13
2022-10-11T22:49:24.046Z,13
2022-10-11T22:54:24.020Z,13.4
2022-10-11T22:59:24.045Z,13.4
2022-10-11T23:04:24.084Z,13.4
2022-10-11T23:09:24.018Z,14
2022-10-11T23:14:24.064Z,14.1
2022-10-11T23:19:24.037Z,14.1
2022-10-11T23:24:24.050Z,14.1
2022-10-11T23:29:24.084Z,14.1
2022-10-11T23:34:24.043Z,14.1
2022-10-11T23:39:24.087Z,14.2
2022-10-11T23:44:24.093Z,14.3
2022-10-11T23:49:24.079Z,14.8
2022-10-11T23:54:24.061Z,14.9
2022-10-11T23:59:24.117Z,15.3
